Main page
METAR-TAF:

METAR-TAF

Airports :

Bamako–Modibo Keïta International Airport

Bamako, Mali

latitude: 12-32N, longitude: 007-57W, elevation: 380 m

Current weather observation

The report was made 44 minutes ago, at 14:00 UTC
Wind 11 kt from the East/Northeast
Temperature 34°C
Humidity 11%
Pressure 1014 hPa
Visibility 10 km or more
no clouds below 1500 m and no cumulonimbus

METAR: GABS 211400Z 06011KT CAVOK 34/M01 Q1014 NOSIG

Time: 14:44 (14:44 UTC)

Forecast

The report was made 3 hours and 44 minutes ago, at 11:00 UTC
Forecast valid from 21 at 12 UTC to 22 at 18 UTC
Wind 10 kt from the East with gusts up to 20 kt
Visibility: 8000 m

TAF: GABS 211100Z 2112/2218 08010G20KT 8000 NSC

Weather observations and forecasts of more than 4000 airports (METAR and TAF reports).

The available stations are represented by yellow and red dots on the map.

Hover mouse over dot to see the name of the station.

Then click to see weather observations and forecasts.

To change the map : click on the green buttons with a black cross to zoom in, on the green button with a dash to zoom out, or on the green arrows for adjacent maps.


METAR-TAF: